Orgas, West Virginia
Current Conditions -  °F | °C
As of 7:43 AM on Thursday 23 Oct 2014 (Local Time) from KCRW Reporting Station
Overcast Overcast  
Wind Chill: 47°   Ceiling: 1700
Heat Index: 47°   Visibility: 10mi
Dew Point: 41°   Wind: 3mph
Humidity: 80%   Direction: NA
Pressure: 30.2"   Gusts: NA
Location:  38.06°N, 81.57°W
Report Text: KCRW 231143Z VRB03KT 10SM BKN017 OVC039 08/05 A3020 RMK AO2 T00830050
Loading
Personal Weather Stations






























Interactive Weather Map
Tropical Storm Tracking
New forecast layout! Learn more

10-Day Weather Forecast

Advertisements
Track Severe Weather on mobile